sensor_id;sensor_type;location;lat;lon;timestamp;P1;durP1;ratioP1;P2;durP2;ratioP2
54167;SDS011;40072;50.958;3.592;2022-07-29T00:01:48;6.70;;;1.10;;
54167;SDS011;40072;50.958;3.592;2022-07-29T00:04:14;5.28;;;1.23;;
54167;SDS011;40072;50.958;3.592;2022-07-29T00:06:40;1.95;;;1.15;;
54167;SDS011;40072;50.958;3.592;2022-07-29T00:09:06;6.57;;;1.50;;
54167;SDS011;40072;50.958;3.592;2022-07-29T00:11:32;2.67;;;1.52;;
54167;SDS011;40072;50.958;3.592;2022-07-29T00:13:58;3.58;;;1.25;;
54167;SDS011;40072;50.958;3.592;2022-07-29T00:16:23;8.88;;;1.55;;
54167;SDS011;40072;50.958;3.592;2022-07-29T00:18:49;9.60;;;1.90;;
54167;SDS011;40072;50.958;3.592;2022-07-29T00:21:15;7.75;;;1.83;;
54167;SDS011;40072;50.958;3.592;2022-07-29T00:23:40;10.45;;;2.40;;
54167;SDS011;40072;50.958;3.592;2022-07-29T00:26:06;3.85;;;1.92;;
54167;SDS011;40072;50.958;3.592;2022-07-29T00:28:32;11.27;;;2.45;;
54167;SDS011;40072;50.958;3.592;2022-07-29T00:30:58;5.03;;;2.33;;
54167;SDS011;40072;50.958;3.592;2022-07-29T00:33:23;5.57;;;2.30;;
54167;SDS011;40072;50.958;3.592;2022-07-29T00:35:49;9.40;;;2.63;;
54167;SDS011;40072;50.958;3.592;2022-07-29T00:38:16;6.88;;;2.10;;
54167;SDS011;40072;50.958;3.592;2022-07-29T00:40:43;4.50;;;2.03;;
54167;SDS011;40072;50.958;3.592;2022-07-29T00:43:09;6.55;;;2.15;;
54167;SDS011;40072;50.958;3.592;2022-07-29T00:45:35;8.73;;;2.63;;
54167;SDS011;40072;50.958;3.592;2022-07-29T00:48:02;12.50;;;3.13;;
54167;SDS011;40072;50.958;3.592;2022-07-29T00:50:29;5.47;;;2.47;;
54167;SDS011;40072;50.958;3.592;2022-07-29T00:52:56;7.68;;;2.72;;
54167;SDS011;40072;50.958;3.592;2022-07-29T00:55:21;8.80;;;2.20;;
54167;SDS011;40072;50.958;3.592;2022-07-29T00:57:47;8.63;;;2.42;;
54167;SDS011;40072;50.958;3.592;2022-07-29T01:00:16;6.28;;;1.88;;
54167;SDS011;40072;50.958;3.592;2022-07-29T01:02:47;6.30;;;2.10;;
54167;SDS011;40072;50.958;3.592;2022-07-29T01:05:13;6.57;;;2.20;;
54167;SDS011;40072;50.958;3.592;2022-07-29T01:07:41;5.28;;;1.70;;
54167;SDS011;40072;50.958;3.592;2022-07-29T01:10:07;7.13;;;1.85;;
54167;SDS011;40072;50.958;3.592;2022-07-29T01:12:35;4.93;;;1.77;;
54167;SDS011;40072;50.958;3.592;2022-07-29T01:15:03;5.30;;;1.85;;
54167;SDS011;40072;50.958;3.592;2022-07-29T01:17:44;8.20;;;2.00;;
54167;SDS011;40072;50.958;3.592;2022-07-29T01:20:23;6.63;;;2.05;;
54167;SDS011;40072;50.958;3.592;2022-07-29T01:29:05;6.07;;;2.03;;
54167;SDS011;40072;50.958;3.592;2022-07-29T01:31:44;5.93;;;2.28;;
54167;SDS011;40072;50.958;3.592;2022-07-29T01:34:18;5.32;;;2.53;;
54167;SDS011;40072;50.958;3.592;2022-07-29T01:36:48;6.47;;;2.30;;
54167;SDS011;40072;50.958;3.592;2022-07-29T01:39:26;4.15;;;2.10;;
54167;SDS011;40072;50.958;3.592;2022-07-29T01:41:57;4.13;;;2.25;;
54167;SDS011;40072;50.958;3.592;2022-07-29T01:44:56;5.53;;;2.10;;
54167;SDS011;40072;50.958;3.592;2022-07-29T01:47:20;5.18;;;2.53;;
54167;SDS011;40072;50.958;3.592;2022-07-29T01:49:49;6.05;;;2.70;;
54167;SDS011;40072;50.958;3.592;2022-07-29T01:52:34;10.82;;;3.08;;
54167;SDS011;40072;50.958;3.592;2022-07-29T01:55:09;4.78;;;2.45;;
54167;SDS011;40072;50.958;3.592;2022-07-29T01:57:39;3.72;;;2.22;;
54167;SDS011;40072;50.958;3.592;2022-07-29T02:00:07;11.23;;;2.78;;
54167;SDS011;40072;50.958;3.592;2022-07-29T02:02:33;8.88;;;2.72;;
54167;SDS011;40072;50.958;3.592;2022-07-29T02:05:02;7.83;;;2.53;;
54167;SDS011;40072;50.958;3.592;2022-07-29T02:07:30;5.95;;;2.67;;
54167;SDS011;40072;50.958;3.592;2022-07-29T02:09:57;10.55;;;3.08;;
54167;SDS011;40072;50.958;3.592;2022-07-29T02:12:25;4.45;;;2.70;;
54167;SDS011;40072;50.958;3.592;2022-07-29T02:14:53;7.55;;;3.20;;
54167;SDS011;40072;50.958;3.592;2022-07-29T02:17:22;6.80;;;2.63;;
54167;SDS011;40072;50.958;3.592;2022-07-29T02:19:51;4.82;;;2.83;;
54167;SDS011;40072;50.958;3.592;2022-07-29T02:22:21;8.10;;;3.03;;
54167;SDS011;40072;50.958;3.592;2022-07-29T02:24:49;3.45;;;2.60;;
54167;SDS011;40072;50.958;3.592;2022-07-29T02:27:16;4.38;;;2.33;;
54167;SDS011;40072;50.958;3.592;2022-07-29T02:29:45;5.25;;;3.20;;
54167;SDS011;40072;50.958;3.592;2022-07-29T02:32:13;6.53;;;3.00;;
54167;SDS011;40072;50.958;3.592;2022-07-29T02:34:39;11.00;;;2.88;;
54167;SDS011;40072;50.958;3.592;2022-07-29T02:37:11;9.13;;;3.08;;
54167;SDS011;40072;50.958;3.592;2022-07-29T02:39:39;7.05;;;2.67;;
54167;SDS011;40072;50.958;3.592;2022-07-29T02:42:10;16.60;;;3.00;;
54167;SDS011;40072;50.958;3.592;2022-07-29T02:44:38;4.57;;;2.75;;
54167;SDS011;40072;50.958;3.592;2022-07-29T02:50:17;14.00;;;3.42;;
54167;SDS011;40072;50.958;3.592;2022-07-29T02:52:50;9.88;;;2.83;;
54167;SDS011;40072;50.958;3.592;2022-07-29T02:55:33;10.20;;;2.90;;
54167;SDS011;40072;50.958;3.592;2022-07-29T02:58:07;6.32;;;2.85;;
54167;SDS011;40072;50.958;3.592;2022-07-29T03:00:59;8.32;;;3.40;;
54167;SDS011;40072;50.958;3.592;2022-07-29T03:03:28;10.65;;;3.20;;
54167;SDS011;40072;50.958;3.592;2022-07-29T03:05:56;10.38;;;2.80;;
54167;SDS011;40072;50.958;3.592;2022-07-29T03:08:24;7.80;;;3.08;;
54167;SDS011;40072;50.958;3.592;2022-07-29T03:10:51;6.30;;;3.15;;
54167;SDS011;40072;50.958;3.592;2022-07-29T03:13:17;4.55;;;2.83;;
54167;SDS011;40072;50.958;3.592;2022-07-29T03:15:44;6.82;;;3.10;;
54167;SDS011;40072;50.958;3.592;2022-07-29T03:18:12;12.57;;;3.10;;
54167;SDS011;40072;50.958;3.592;2022-07-29T03:20:39;12.23;;;3.35;;
54167;SDS011;40072;50.958;3.592;2022-07-29T03:23:05;5.63;;;2.97;;
54167;SDS011;40072;50.958;3.592;2022-07-29T03:25:32;7.57;;;3.10;;
54167;SDS011;40072;50.958;3.592;2022-07-29T03:27:58;5.25;;;2.55;;
54167;SDS011;40072;50.958;3.592;2022-07-29T03:30:24;6.75;;;2.90;;
54167;SDS011;40072;50.958;3.592;2022-07-29T03:32:50;5.55;;;3.08;;
54167;SDS011;40072;50.958;3.592;2022-07-29T03:35:16;8.40;;;3.35;;
54167;SDS011;40072;50.958;3.592;2022-07-29T03:37:43;6.15;;;2.67;;
54167;SDS011;40072;50.958;3.592;2022-07-29T03:40:09;6.28;;;2.95;;
54167;SDS011;40072;50.958;3.592;2022-07-29T03:42:42;5.45;;;2.85;;
54167;SDS011;40072;50.958;3.592;2022-07-29T03:45:10;4.63;;;2.60;;
54167;SDS011;40072;50.958;3.592;2022-07-29T03:47:41;11.25;;;3.10;;
54167;SDS011;40072;50.958;3.592;2022-07-29T03:50:11;6.60;;;3.38;;
54167;SDS011;40072;50.958;3.592;2022-07-29T03:52:39;4.82;;;3.15;;
54167;SDS011;40072;50.958;3.592;2022-07-29T03:55:06;8.88;;;3.42;;
54167;SDS011;40072;50.958;3.592;2022-07-29T03:57:32;10.25;;;3.35;;
54167;SDS011;40072;50.958;3.592;2022-07-29T04:00:00;10.95;;;2.80;;
54167;SDS011;40072;50.958;3.592;2022-07-29T04:02:28;9.40;;;3.40;;
54167;SDS011;40072;50.958;3.592;2022-07-29T04:04:53;6.05;;;3.50;;
54167;SDS011;40072;50.958;3.592;2022-07-29T04:07:19;11.10;;;3.92;;
54167;SDS011;40072;50.958;3.592;2022-07-29T04:09:45;9.88;;;4.38;;
54167;SDS011;40072;50.958;3.592;2022-07-29T04:12:11;8.65;;;3.40;;
54167;SDS011;40072;50.958;3.592;2022-07-29T04:14:37;7.53;;;3.47;;
54167;SDS011;40072;50.958;3.592;2022-07-29T04:17:03;6.00;;;3.50;;
54167;SDS011;40072;50.958;3.592;2022-07-29T04:19:29;6.35;;;3.65;;
54167;SDS011;40072;50.958;3.592;2022-07-29T04:21:55;7.93;;;3.33;;
54167;SDS011;40072;50.958;3.592;2022-07-29T04:24:21;9.88;;;3.55;;
54167;SDS011;40072;50.958;3.592;2022-07-29T04:26:47;5.15;;;3.17;;
54167;SDS011;40072;50.958;3.592;2022-07-29T04:29:13;7.63;;;3.53;;
54167;SDS011;40072;50.958;3.592;2022-07-29T04:31:39;8.25;;;3.25;;
54167;SDS011;40072;50.958;3.592;2022-07-29T04:34:06;5.57;;;3.40;;
54167;SDS011;40072;50.958;3.592;2022-07-29T04:36:32;6.75;;;3.67;;
54167;SDS011;40072;50.958;3.592;2022-07-29T04:38:58;8.32;;;3.25;;
54167;SDS011;40072;50.958;3.592;2022-07-29T04:41:23;6.15;;;3.40;;
54167;SDS011;40072;50.958;3.592;2022-07-29T04:43:49;7.47;;;3.35;;
54167;SDS011;40072;50.958;3.592;2022-07-29T04:46:15;4.95;;;3.50;;
54167;SDS011;40072;50.958;3.592;2022-07-29T04:48:41;8.80;;;3.63;;
54167;SDS011;40072;50.958;3.592;2022-07-29T04:51:06;5.78;;;3.80;;
54167;SDS011;40072;50.958;3.592;2022-07-29T04:53:32;6.18;;;3.60;;
54167;SDS011;40072;50.958;3.592;2022-07-29T04:55:57;5.90;;;3.50;;
54167;SDS011;40072;50.958;3.592;2022-07-29T04:58:23;7.22;;;3.53;;
54167;SDS011;40072;50.958;3.592;2022-07-29T05:00:49;5.38;;;3.45;;
54167;SDS011;40072;50.958;3.592;2022-07-29T05:03:15;10.90;;;4.43;;
54167;SDS011;40072;50.958;3.592;2022-07-29T05:05:41;5.90;;;3.80;;
54167;SDS011;40072;50.958;3.592;2022-07-29T05:08:07;8.85;;;3.92;;
54167;SDS011;40072;50.958;3.592;2022-07-29T05:10:33;8.77;;;3.40;;
54167;SDS011;40072;50.958;3.592;2022-07-29T05:13:03;6.13;;;3.40;;
54167;SDS011;40072;50.958;3.592;2022-07-29T05:15:30;10.00;;;3.30;;
54167;SDS011;40072;50.958;3.592;2022-07-29T05:17:56;6.80;;;3.55;;
54167;SDS011;40072;50.958;3.592;2022-07-29T05:20:21;7.82;;;3.47;;
54167;SDS011;40072;50.958;3.592;2022-07-29T05:25:17;6.60;;;3.20;;
54167;SDS011;40072;50.958;3.592;2022-07-29T05:27:43;5.90;;;3.05;;
54167;SDS011;40072;50.958;3.592;2022-07-29T05:30:08;5.15;;;2.97;;
54167;SDS011;40072;50.958;3.592;2022-07-29T05:32:34;9.32;;;3.47;;
54167;SDS011;40072;50.958;3.592;2022-07-29T05:35:00;6.35;;;3.33;;
54167;SDS011;40072;50.958;3.592;2022-07-29T05:37:25;5.72;;;3.25;;
54167;SDS011;40072;50.958;3.592;2022-07-29T05:39:51;5.55;;;3.42;;
54167;SDS011;40072;50.958;3.592;2022-07-29T05:42:17;12.85;;;3.40;;
54167;SDS011;40072;50.958;3.592;2022-07-29T05:44:43;14.20;;;3.10;;
54167;SDS011;40072;50.958;3.592;2022-07-29T05:47:08;7.95;;;3.00;;
54167;SDS011;40072;50.958;3.592;2022-07-29T05:49:34;6.90;;;3.00;;
54167;SDS011;40072;50.958;3.592;2022-07-29T05:52:00;8.20;;;2.75;;
54167;SDS011;40072;50.958;3.592;2022-07-29T05:54:25;8.02;;;3.00;;
54167;SDS011;40072;50.958;3.592;2022-07-29T05:56:51;10.18;;;2.90;;
54167;SDS011;40072;50.958;3.592;2022-07-29T05:59:16;8.93;;;3.30;;
54167;SDS011;40072;50.958;3.592;2022-07-29T06:01:42;7.95;;;3.22;;
54167;SDS011;40072;50.958;3.592;2022-07-29T06:04:08;9.75;;;3.20;;
54167;SDS011;40072;50.958;3.592;2022-07-29T06:06:33;6.88;;;2.75;;
54167;SDS011;40072;50.958;3.592;2022-07-29T06:09:00;14.93;;;3.95;;
54167;SDS011;40072;50.958;3.592;2022-07-29T06:11:26;14.98;;;3.28;;
54167;SDS011;40072;50.958;3.592;2022-07-29T06:13:52;10.02;;;4.10;;
54167;SDS011;40072;50.958;3.592;2022-07-29T06:16:18;15.27;;;4.13;;
54167;SDS011;40072;50.958;3.592;2022-07-29T06:18:44;20.65;;;3.92;;
54167;SDS011;40072;50.958;3.592;2022-07-29T06:21:10;24.23;;;5.53;;
54167;SDS011;40072;50.958;3.592;2022-07-29T06:23:38;24.25;;;5.80;;
54167;SDS011;40072;50.958;3.592;2022-07-29T06:26:04;21.85;;;5.50;;
54167;SDS011;40072;50.958;3.592;2022-07-29T06:28:30;25.33;;;5.43;;
54167;SDS011;40072;50.958;3.592;2022-07-29T06:30:57;26.98;;;5.43;;
54167;SDS011;40072;50.958;3.592;2022-07-29T06:33:22;19.15;;;6.60;;
54167;SDS011;40072;50.958;3.592;2022-07-29T06:35:48;30.83;;;7.25;;
54167;SDS011;40072;50.958;3.592;2022-07-29T06:38:14;19.02;;;6.30;;
54167;SDS011;40072;50.958;3.592;2022-07-29T06:40:44;26.58;;;6.18;;
54167;SDS011;40072;50.958;3.592;2022-07-29T06:45:59;16.02;;;5.72;;
54167;SDS011;40072;50.958;3.592;2022-07-29T06:48:26;17.88;;;4.47;;
54167;SDS011;40072;50.958;3.592;2022-07-29T06:50:52;15.25;;;5.50;;
54167;SDS011;40072;50.958;3.592;2022-07-29T06:53:18;9.90;;;4.55;;
54167;SDS011;40072;50.958;3.592;2022-07-29T06:55:43;7.50;;;4.35;;
54167;SDS011;40072;50.958;3.592;2022-07-29T06:58:10;14.32;;;4.30;;
54167;SDS011;40072;50.958;3.592;2022-07-29T07:00:36;13.88;;;4.45;;
54167;SDS011;40072;50.958;3.592;2022-07-29T07:03:02;18.90;;;5.20;;
54167;SDS011;40072;50.958;3.592;2022-07-29T07:05:28;13.02;;;4.88;;
54167;SDS011;40072;50.958;3.592;2022-07-29T07:07:54;11.85;;;4.45;;
54167;SDS011;40072;50.958;3.592;2022-07-29T07:10:19;10.55;;;4.32;;
54167;SDS011;40072;50.958;3.592;2022-07-29T07:12:45;17.13;;;4.40;;
54167;SDS011;40072;50.958;3.592;2022-07-29T07:15:11;14.80;;;4.75;;
54167;SDS011;40072;50.958;3.592;2022-07-29T07:17:36;9.55;;;4.60;;
54167;SDS011;40072;50.958;3.592;2022-07-29T07:20:03;12.02;;;5.22;;
54167;SDS011;40072;50.958;3.592;2022-07-29T07:22:29;8.52;;;4.13;;
54167;SDS011;40072;50.958;3.592;2022-07-29T07:24:55;9.43;;;4.35;;
54167;SDS011;40072;50.958;3.592;2022-07-29T07:27:21;12.73;;;4.05;;
54167;SDS011;40072;50.958;3.592;2022-07-29T07:29:47;13.10;;;4.20;;
54167;SDS011;40072;50.958;3.592;2022-07-29T07:32:13;8.13;;;4.28;;
54167;SDS011;40072;50.958;3.592;2022-07-29T07:34:41;9.57;;;4.60;;
54167;SDS011;40072;50.958;3.592;2022-07-29T07:37:08;9.48;;;4.25;;
54167;SDS011;40072;50.958;3.592;2022-07-29T07:39:34;6.20;;;3.90;;
54167;SDS011;40072;50.958;3.592;2022-07-29T07:41:59;8.48;;;3.97;;
54167;SDS011;40072;50.958;3.592;2022-07-29T07:44:25;6.93;;;3.65;;
54167;SDS011;40072;50.958;3.592;2022-07-29T07:46:51;9.82;;;3.90;;
54167;SDS011;40072;50.958;3.592;2022-07-29T07:49:17;8.10;;;4.15;;
54167;SDS011;40072;50.958;3.592;2022-07-29T07:51:43;9.43;;;3.80;;
54167;SDS011;40072;50.958;3.592;2022-07-29T07:54:08;14.52;;;4.22;;
54167;SDS011;40072;50.958;3.592;2022-07-29T07:56:34;8.50;;;4.38;;
54167;SDS011;40072;50.958;3.592;2022-07-29T07:59:00;10.30;;;4.45;;
54167;SDS011;40072;50.958;3.592;2022-07-29T08:01:25;11.63;;;4.40;;
54167;SDS011;40072;50.958;3.592;2022-07-29T08:03:51;4.82;;;4.28;;
54167;SDS011;40072;50.958;3.592;2022-07-29T08:06:17;9.10;;;4.40;;
54167;SDS011;40072;50.958;3.592;2022-07-29T08:08:42;13.13;;;4.80;;
54167;SDS011;40072;50.958;3.592;2022-07-29T08:11:08;13.38;;;4.50;;
54167;SDS011;40072;50.958;3.592;2022-07-29T08:13:34;11.63;;;4.78;;
54167;SDS011;40072;50.958;3.592;2022-07-29T08:16:00;15.50;;;4.57;;
54167;SDS011;40072;50.958;3.592;2022-07-29T08:18:30;14.90;;;4.72;;
54167;SDS011;40072;50.958;3.592;2022-07-29T08:20:56;12.85;;;3.88;;
54167;SDS011;40072;50.958;3.592;2022-07-29T08:23:22;11.82;;;5.63;;
54167;SDS011;40072;50.958;3.592;2022-07-29T08:25:48;9.18;;;5.60;;
54167;SDS011;40072;50.958;3.592;2022-07-29T08:28:14;12.10;;;5.25;;
54167;SDS011;40072;50.958;3.592;2022-07-29T08:30:40;9.40;;;4.70;;
54167;SDS011;40072;50.958;3.592;2022-07-29T08:33:06;9.35;;;4.53;;
54167;SDS011;40072;50.958;3.592;2022-07-29T08:35:31;13.88;;;4.70;;
54167;SDS011;40072;50.958;3.592;2022-07-29T08:37:57;13.93;;;5.20;;
54167;SDS011;40072;50.958;3.592;2022-07-29T08:40:23;9.40;;;4.38;;
54167;SDS011;40072;50.958;3.592;2022-07-29T08:42:49;14.68;;;4.60;;
54167;SDS011;40072;50.958;3.592;2022-07-29T08:45:15;8.73;;;3.28;;
54167;SDS011;40072;50.958;3.592;2022-07-29T08:47:41;8.13;;;4.05;;
54167;SDS011;40072;50.958;3.592;2022-07-29T08:50:11;13.25;;;4.07;;
54167;SDS011;40072;50.958;3.592;2022-07-29T08:52:38;15.13;;;4.40;;
54167;SDS011;40072;50.958;3.592;2022-07-29T08:55:05;7.40;;;4.60;;
54167;SDS011;40072;50.958;3.592;2022-07-29T08:57:33;10.63;;;3.80;;
54167;SDS011;40072;50.958;3.592;2022-07-29T09:00:06;5.10;;;3.40;;
54167;SDS011;40072;50.958;3.592;2022-07-29T09:02:35;9.80;;;3.35;;
54167;SDS011;40072;50.958;3.592;2022-07-29T09:05:06;15.30;;;3.40;;
54167;SDS011;40072;50.958;3.592;2022-07-29T09:07:32;5.68;;;2.97;;
54167;SDS011;40072;50.958;3.592;2022-07-29T09:09:59;9.57;;;3.15;;
54167;SDS011;40072;50.958;3.592;2022-07-29T09:12:25;10.95;;;2.75;;
54167;SDS011;40072;50.958;3.592;2022-07-29T09:14:51;8.80;;;2.60;;
54167;SDS011;40072;50.958;3.592;2022-07-29T09:17:16;4.38;;;2.13;;
54167;SDS011;40072;50.958;3.592;2022-07-29T09:19:42;3.67;;;2.05;;
54167;SDS011;40072;50.958;3.592;2022-07-29T09:22:09;8.85;;;2.90;;
54167;SDS011;40072;50.958;3.592;2022-07-29T09:27:02;3.95;;;1.80;;
54167;SDS011;40072;50.958;3.592;2022-07-29T09:29:30;4.68;;;1.83;;
54167;SDS011;40072;50.958;3.592;2022-07-29T09:31:56;6.40;;;2.28;;
54167;SDS011;40072;50.958;3.592;2022-07-29T09:34:23;4.30;;;2.05;;
54167;SDS011;40072;50.958;3.592;2022-07-29T09:36:50;6.45;;;1.60;;
54167;SDS011;40072;50.958;3.592;2022-07-29T09:42:10;5.13;;;2.45;;
54167;SDS011;40072;50.958;3.592;2022-07-29T09:44:40;5.35;;;2.08;;
54167;SDS011;40072;50.958;3.592;2022-07-29T09:47:06;4.68;;;1.98;;
54167;SDS011;40072;50.958;3.592;2022-07-29T09:52:24;7.50;;;2.28;;
54167;SDS011;40072;50.958;3.592;2022-07-29T09:54:50;5.75;;;1.90;;
54167;SDS011;40072;50.958;3.592;2022-07-29T10:00:03;7.53;;;1.88;;
54167;SDS011;40072;50.958;3.592;2022-07-29T10:02:33;5.95;;;1.50;;
54167;SDS011;40072;50.958;3.592;2022-07-29T10:05:00;8.18;;;1.70;;
54167;SDS011;40072;50.958;3.592;2022-07-29T10:10:10;3.65;;;1.55;;
54167;SDS011;40072;50.958;3.592;2022-07-29T10:12:53;4.40;;;1.50;;
54167;SDS011;40072;50.958;3.592;2022-07-29T10:15:21;3.78;;;1.60;;
54167;SDS011;40072;50.958;3.592;2022-07-29T10:17:48;3.17;;;1.45;;
54167;SDS011;40072;50.958;3.592;2022-07-29T10:20:15;3.20;;;1.38;;
54167;SDS011;40072;50.958;3.592;2022-07-29T10:22:41;3.67;;;1.42;;
54167;SDS011;40072;50.958;3.592;2022-07-29T10:25:07;2.85;;;1.33;;
54167;SDS011;40072;50.958;3.592;2022-07-29T10:27:34;3.47;;;1.10;;
54167;SDS011;40072;50.958;3.592;2022-07-29T10:30:01;7.10;;;1.60;;
54167;SDS011;40072;50.958;3.592;2022-07-29T10:32:39;5.07;;;1.40;;
54167;SDS011;40072;50.958;3.592;2022-07-29T10:35:18;4.32;;;1.67;;
54167;SDS011;40072;50.958;3.592;2022-07-29T10:43:53;6.50;;;1.63;;
54167;SDS011;40072;50.958;3.592;2022-07-29T10:46:22;4.05;;;1.40;;
54167;SDS011;40072;50.958;3.592;2022-07-29T10:49:07;5.28;;;1.42;;
54167;SDS011;40072;50.958;3.592;2022-07-29T10:52:09;1.55;;;1.00;;
54167;SDS011;40072;50.958;3.592;2022-07-29T10:59:49;3.00;;;1.30;;
54167;SDS011;40072;50.958;3.592;2022-07-29T11:05:07;5.88;;;1.67;;
54167;SDS011;40072;50.958;3.592;2022-07-29T11:13:07;2.97;;;1.50;;
54167;SDS011;40072;50.958;3.592;2022-07-29T11:15:51;2.60;;;1.50;;
54167;SDS011;40072;50.958;3.592;2022-07-29T11:18:22;4.43;;;1.40;;
54167;SDS011;40072;50.958;3.592;2022-07-29T11:20:48;5.13;;;1.50;;
54167;SDS011;40072;50.958;3.592;2022-07-29T11:23:19;6.88;;;1.45;;
54167;SDS011;40072;50.958;3.592;2022-07-29T11:29:02;4.78;;;1.50;;
54167;SDS011;40072;50.958;3.592;2022-07-29T11:31:40;5.72;;;1.60;;
54167;SDS011;40072;50.958;3.592;2022-07-29T11:39:36;6.03;;;1.30;;
54167;SDS011;40072;50.958;3.592;2022-07-29T11:44:59;3.78;;;1.88;;
54167;SDS011;40072;50.958;3.592;2022-07-29T11:47:35;7.00;;;1.95;;
54167;SDS011;40072;50.958;3.592;2022-07-29T11:50:31;7.22;;;1.80;;
54167;SDS011;40072;50.958;3.592;2022-07-29T11:53:01;4.38;;;1.50;;
54167;SDS011;40072;50.958;3.592;2022-07-29T11:55:34;4.22;;;1.63;;
54167;SDS011;40072;50.958;3.592;2022-07-29T11:58:02;7.10;;;1.98;;
54167;SDS011;40072;50.958;3.592;2022-07-29T12:00:29;5.90;;;1.75;;
54167;SDS011;40072;50.958;3.592;2022-07-29T12:03:01;5.43;;;1.65;;
54167;SDS011;40072;50.958;3.592;2022-07-29T12:05:31;8.50;;;1.80;;
54167;SDS011;40072;50.958;3.592;2022-07-29T12:08:09;5.97;;;1.40;;
54167;SDS011;40072;50.958;3.592;2022-07-29T12:10:47;5.38;;;1.70;;
54167;SDS011;40072;50.958;3.592;2022-07-29T12:13:14;2.88;;;1.50;;
54167;SDS011;40072;50.958;3.592;2022-07-29T12:15:51;6.28;;;1.90;;
54167;SDS011;40072;50.958;3.592;2022-07-29T12:18:22;2.47;;;1.40;;
54167;SDS011;40072;50.958;3.592;2022-07-29T12:20:47;7.72;;;1.80;;
54167;SDS011;40072;50.958;3.592;2022-07-29T12:23:14;8.82;;;1.85;;
54167;SDS011;40072;50.958;3.592;2022-07-29T12:25:41;5.45;;;1.60;;
54167;SDS011;40072;50.958;3.592;2022-07-29T12:28:12;3.72;;;1.40;;
54167;SDS011;40072;50.958;3.592;2022-07-29T12:30:41;5.25;;;1.67;;
54167;SDS011;40072;50.958;3.592;2022-07-29T12:36:02;4.22;;;1.58;;
54167;SDS011;40072;50.958;3.592;2022-07-29T12:38:28;4.30;;;1.50;;
54167;SDS011;40072;50.958;3.592;2022-07-29T12:40:54;5.95;;;1.67;;
54167;SDS011;40072;50.958;3.592;2022-07-29T12:43:21;4.57;;;1.20;;
54167;SDS011;40072;50.958;3.592;2022-07-29T12:45:49;8.98;;;1.42;;
54167;SDS011;40072;50.958;3.592;2022-07-29T12:48:17;8.85;;;1.10;;
54167;SDS011;40072;50.958;3.592;2022-07-29T12:53:22;3.10;;;1.05;;
54167;SDS011;40072;50.958;3.592;2022-07-29T12:55:49;4.00;;;1.25;;
54167;SDS011;40072;50.958;3.592;2022-07-29T13:03:45;5.50;;;1.20;;
54167;SDS011;40072;50.958;3.592;2022-07-29T13:06:27;2.70;;;1.17;;
54167;SDS011;40072;50.958;3.592;2022-07-29T13:11:47;3.92;;;1.17;;
54167;SDS011;40072;50.958;3.592;2022-07-29T13:17:09;4.50;;;1.00;;
54167;SDS011;40072;50.958;3.592;2022-07-29T13:19:47;2.15;;;1.05;;
54167;SDS011;40072;50.958;3.592;2022-07-29T13:22:24;6.30;;;1.27;;
54167;SDS011;40072;50.958;3.592;2022-07-29T13:27:20;1.25;;;0.73;;
54167;SDS011;40072;50.958;3.592;2022-07-29T13:29:54;2.45;;;1.20;;
54167;SDS011;40072;50.958;3.592;2022-07-29T13:32:22;2.67;;;1.00;;
54167;SDS011;40072;50.958;3.592;2022-07-29T13:34:50;5.38;;;1.35;;
54167;SDS011;40072;50.958;3.592;2022-07-29T13:37:17;5.18;;;1.30;;
54167;SDS011;40072;50.958;3.592;2022-07-29T13:39:43;3.13;;;1.10;;
54167;SDS011;40072;50.958;3.592;2022-07-29T13:42:09;3.38;;;1.40;;
54167;SDS011;40072;50.958;3.592;2022-07-29T13:44:35;3.55;;;1.40;;
54167;SDS011;40072;50.958;3.592;2022-07-29T13:47:01;4.35;;;1.02;;
54167;SDS011;40072;50.958;3.592;2022-07-29T13:49:27;5.72;;;1.48;;
54167;SDS011;40072;50.958;3.592;2022-07-29T13:51:53;11.13;;;1.33;;
54167;SDS011;40072;50.958;3.592;2022-07-29T13:54:19;4.68;;;1.30;;
54167;SDS011;40072;50.958;3.592;2022-07-29T13:56:44;2.97;;;1.02;;
54167;SDS011;40072;50.958;3.592;2022-07-29T13:59:10;8.27;;;1.30;;
54167;SDS011;40072;50.958;3.592;2022-07-29T14:01:36;9.00;;;1.42;;
54167;SDS011;40072;50.958;3.592;2022-07-29T14:04:02;8.13;;;1.35;;
54167;SDS011;40072;50.958;3.592;2022-07-29T14:06:28;8.57;;;1.67;;
54167;SDS011;40072;50.958;3.592;2022-07-29T14:08:53;4.97;;;1.50;;
54167;SDS011;40072;50.958;3.592;2022-07-29T14:11:19;5.68;;;1.55;;
54167;SDS011;40072;50.958;3.592;2022-07-29T14:13:45;3.58;;;1.30;;
54167;SDS011;40072;50.958;3.592;2022-07-29T14:16:10;2.35;;;1.30;;
54167;SDS011;40072;50.958;3.592;2022-07-29T14:18:36;4.03;;;1.40;;
54167;SDS011;40072;50.958;3.592;2022-07-29T14:21:02;2.13;;;1.15;;
54167;SDS011;40072;50.958;3.592;2022-07-29T14:23:28;4.32;;;1.50;;
54167;SDS011;40072;50.958;3.592;2022-07-29T14:25:54;5.43;;;1.90;;
54167;SDS011;40072;50.958;3.592;2022-07-29T14:28:19;5.15;;;1.30;;
54167;SDS011;40072;50.958;3.592;2022-07-29T14:30:45;5.38;;;1.30;;
54167;SDS011;40072;50.958;3.592;2022-07-29T14:33:11;6.88;;;1.48;;
54167;SDS011;40072;50.958;3.592;2022-07-29T14:35:37;3.50;;;1.50;;
54167;SDS011;40072;50.958;3.592;2022-07-29T14:38:03;4.70;;;1.50;;
54167;SDS011;40072;50.958;3.592;2022-07-29T14:40:28;4.68;;;1.60;;
54167;SDS011;40072;50.958;3.592;2022-07-29T14:42:54;4.40;;;1.48;;
54167;SDS011;40072;50.958;3.592;2022-07-29T14:45:20;3.58;;;1.60;;
54167;SDS011;40072;50.958;3.592;2022-07-29T14:47:45;3.80;;;1.38;;
54167;SDS011;40072;50.958;3.592;2022-07-29T14:50:11;3.80;;;1.10;;
54167;SDS011;40072;50.958;3.592;2022-07-29T14:52:37;6.30;;;1.67;;
54167;SDS011;40072;50.958;3.592;2022-07-29T14:55:03;3.90;;;1.70;;
54167;SDS011;40072;50.958;3.592;2022-07-29T14:57:29;4.32;;;1.20;;
54167;SDS011;40072;50.958;3.592;2022-07-29T14:59:55;1.75;;;1.00;;
54167;SDS011;40072;50.958;3.592;2022-07-29T15:02:21;3.30;;;1.50;;
54167;SDS011;40072;50.958;3.592;2022-07-29T15:04:46;7.60;;;1.30;;
54167;SDS011;40072;50.958;3.592;2022-07-29T15:07:13;8.95;;;1.58;;
54167;SDS011;40072;50.958;3.592;2022-07-29T15:09:39;4.03;;;1.50;;
54167;SDS011;40072;50.958;3.592;2022-07-29T15:12:05;5.43;;;2.10;;
54167;SDS011;40072;50.958;3.592;2022-07-29T15:14:31;5.38;;;1.33;;
54167;SDS011;40072;50.958;3.592;2022-07-29T15:16:57;2.72;;;1.25;;
54167;SDS011;40072;50.958;3.592;2022-07-29T15:19:23;8.07;;;1.38;;
54167;SDS011;40072;50.958;3.592;2022-07-29T15:21:48;3.97;;;1.30;;
54167;SDS011;40072;50.958;3.592;2022-07-29T15:24:16;7.65;;;1.50;;
54167;SDS011;40072;50.958;3.592;2022-07-29T15:26:42;3.33;;;1.10;;
54167;SDS011;40072;50.958;3.592;2022-07-29T15:29:08;4.78;;;1.27;;
54167;SDS011;40072;50.958;3.592;2022-07-29T15:31:34;3.75;;;1.02;;
54167;SDS011;40072;50.958;3.592;2022-07-29T15:33:59;5.22;;;1.42;;
54167;SDS011;40072;50.958;3.592;2022-07-29T15:36:25;3.30;;;1.52;;
54167;SDS011;40072;50.958;3.592;2022-07-29T15:38:52;4.72;;;1.50;;
54167;SDS011;40072;50.958;3.592;2022-07-29T15:41:18;4.35;;;1.30;;
54167;SDS011;40072;50.958;3.592;2022-07-29T15:43:44;8.07;;;1.90;;
54167;SDS011;40072;50.958;3.592;2022-07-29T15:46:12;3.53;;;1.70;;
54167;SDS011;40072;50.958;3.592;2022-07-29T15:48:57;8.07;;;1.85;;
54167;SDS011;40072;50.958;3.592;2022-07-29T15:51:22;3.33;;;1.55;;
54167;SDS011;40072;50.958;3.592;2022-07-29T15:53:49;4.95;;;1.65;;
54167;SDS011;40072;50.958;3.592;2022-07-29T15:56:14;3.05;;;1.70;;
54167;SDS011;40072;50.958;3.592;2022-07-29T15:58:40;5.85;;;1.70;;
54167;SDS011;40072;50.958;3.592;2022-07-29T16:01:06;10.35;;;1.60;;
54167;SDS011;40072;50.958;3.592;2022-07-29T16:03:31;7.15;;;1.77;;
54167;SDS011;40072;50.958;3.592;2022-07-29T16:05:57;3.38;;;1.35;;
54167;SDS011;40072;50.958;3.592;2022-07-29T16:08:23;3.70;;;1.60;;